• Join FlightAware (Why Join?)
  • Login
  • US Flag 
Rudolph Flight #1: Arrived! 
06:55PM EST


 

Airport Tracker/Info


-or-


 

Live Flight TrackerFlight Track Log ✈ ASQ5678 ✈ 23-Aug-2013 ✈ KIAH - KLFT

Flight Track Log - Related Links

Times and Time Zones

All times are in EDT time to prevent confusion due to time zone crossing. See the ASQ5678 flight status page for this flight to view local times or setup timezone preferences in your user account.

Time Position Orientation Groundspeed Altitude Reporting Facility
EDT Latitude Longitude Course Direction KTS MPH feet Rate Location/Type
01:47PM 29.9617 -95.3436 90° East 165 190 700  Level Houston Center
01:48PM 29.9411 -95.2786 110° East 234 269 2,500 1,560 Climbing Houston Center
01:49PM 29.9314 -95.1978 98° East 253 291 4,100 1,560 Climbing Houston Center
01:51PM 29.9347 -95.1203 87° East 252 290 5,700 1,920 Climbing Houston Center
01:52PM 29.9417 -95.0372 84° East 257 296 8,100 1,980 Climbing Houston Center
01:53PM 29.9834 -94.7203 90° East  Level FlightAware Approximate
01:53PM 29.9511 -94.9183 85° East 259 298 10,700  Level Houston Center
01:54PM 29.9583 -94.8169 85° East 301 346 11,600 1,020 Climbing Houston Center
01:55PM 29.9672 -94.7022 85° East 329 379 12,900 1,200 Climbing Houston Center
01:56PM 29.9753 -94.5886 85° East 348 400 14,100 1,020 Climbing Houston Center
01:57PM 29.9858 -94.4736 84° East 358 412 15,100 960 Climbing Houston Center
01:58PM 29.9967 -94.3553 84° East 369 425 16,100 900 Climbing Houston Center
01:59PM 30.0103 -94.2108 84° East 378 435 17,000 420 Climbing Houston Center
02:00PM 30.0217 -94.0836 84° East 397 457 17,000 -60 Level Houston Center
02:01PM 30.0336 -93.9569 84° East 399 459 16,900 -60 Descending Houston Center
02:02PM 30.0447 -93.8297 84° East 401 461 16,900  Level Houston Center
02:03PM 30.0553 -93.7022 85° East 403 464 16,900  Level Houston Center
02:04PM 30.0683 -93.5497 84° East 403 464 16,900  Level Houston Center
02:05PM 30.0789 -93.4242 84° East 399 459 16,900  Level Houston Center
02:06PM 30.0900 -93.3008 84° East 392 451 16,900  Level Houston Center
02:07PM 30.1000 -93.1781 85° East 389 448 16,900 -480 Level Houston Center
02:09PM 30.1111 -93.0328 85° East 384 442 16,000 -1,020 Descending Houston Center
02:10PM 30.1208 -92.9156 84° East 373 429 14,800 -1,200 Descending Houston Center
02:11PM 30.1308 -92.7997 84° East 368 423 13,600 -1,500 Descending Houston Center
02:12PM 30.1386 -92.6947 85° East 341 392 11,700 -1,320 Descending Houston Center
02:13PM 30.1472 -92.5986 84° East 312 359 10,900 -1,260 Descending Houston Center
02:14PM 30.1536 -92.5144 85° East 277 319 9,200 -1,860 Descending Houston Center
02:15PM 30.1542 -92.4142 90° East 262 302 7,100 -1,800 Descending Houston Center
02:16PM 30.1478 -92.3361 95° East 251 289 5,500 -1,500 Descending Houston Center
02:17PM 30.1417 -92.2611 95° East 240 276 4,100 -1,260 Descending Houston Center
02:18PM 30.1350 -92.1878 96° East 232 267 2,900 -960 Descending Houston Center
02:19PM 30.1297 -92.1039 94° East 232 267 2,200 -720 Descending Houston Center